createdAt,value
2022-09-27T00:01:39.317Z,11.46
2022-09-27T00:04:46.948Z,11.46
2022-09-27T00:07:54.202Z,11.43
2022-09-27T00:11:01.775Z,11.43
2022-09-27T00:14:09.728Z,11.47
2022-09-27T00:17:17.043Z,11.47
2022-09-27T00:20:25.120Z,11.44
2022-09-27T00:23:32.424Z,11.43
2022-09-27T00:26:39.934Z,11.44
2022-09-27T00:29:47.677Z,11.41
2022-09-27T00:32:55.376Z,11.41
2022-09-27T00:36:02.958Z,11.41
2022-09-27T00:39:10.978Z,11.41
2022-09-27T00:42:18.678Z,11.41
2022-09-27T00:45:26.030Z,11.43
2022-09-27T00:48:33.651Z,11.41
2022-09-27T00:51:41.204Z,11.41
2022-09-27T00:54:48.752Z,11.39
2022-09-27T00:57:51.943Z,11.41
2022-09-27T01:00:59.627Z,11.39
2022-09-27T01:04:07.184Z,11.38
2022-09-27T01:07:15.653Z,11.39
2022-09-27T01:10:23.156Z,11.38
2022-09-27T01:13:30.706Z,11.39
2022-09-27T01:16:38.285Z,11.38
2022-09-27T01:19:45.898Z,11.43
2022-09-27T01:22:54.037Z,11.41
2022-09-27T01:26:01.196Z,11.43
2022-09-27T01:29:09.383Z,11.41
2022-09-27T01:32:16.961Z,11.39
2022-09-27T01:35:24.513Z,11.36
2022-09-27T01:38:32.465Z,11.35
2022-09-27T01:41:39.532Z,11.36
2022-09-27T01:44:47.613Z,11.34
2022-09-27T01:47:55.213Z,11.32
2022-09-27T01:51:02.831Z,11.32
2022-09-27T01:54:10.707Z,11.34
2022-09-27T01:57:17.916Z,11.31
2022-09-27T02:00:25.737Z,11.31
2022-09-27T02:03:33.148Z,11.27
2022-09-27T02:06:40.717Z,11.25
2022-09-27T02:09:48.598Z,11.28
2022-09-27T02:12:56.276Z,11.25
2022-09-27T02:16:03.912Z,11.27
2022-09-27T02:19:11.480Z,11.27
2022-09-27T02:22:19.201Z,11.27
2022-09-27T02:25:27.423Z,11.27
2022-09-27T02:28:34.893Z,11.21
2022-09-27T02:31:42.605Z,11.24
2022-09-27T02:34:50.244Z,11.25
2022-09-27T02:37:57.885Z,11.25
2022-09-27T02:41:05.467Z,11.25
2022-09-27T02:44:13.635Z,11.25
2022-09-27T02:47:20.796Z,11.28
2022-09-27T02:50:28.608Z,11.25
2022-09-27T02:53:36.208Z,11.27
2022-09-27T02:56:43.949Z,11.28
2022-09-27T02:59:51.561Z,11.29
2022-09-27T03:02:59.311Z,11.28
2022-09-27T03:06:06.538Z,11.29
2022-09-27T03:09:14.628Z,11.28
2022-09-27T03:12:21.772Z,11.27
2022-09-27T03:15:30.062Z,11.27
2022-09-27T03:18:37.283Z,11.27
2022-09-27T03:21:44.863Z,11.28
2022-09-27T03:24:52.616Z,11.28
2022-09-27T03:28:00.365Z,11.25
2022-09-27T03:31:08.026Z,11.20
2022-09-27T03:34:16.327Z,11.19
2022-09-27T03:37:23.508Z,11.16
2022-09-27T03:40:31.789Z,11.13
2022-09-27T03:43:39.249Z,11.11
2022-09-27T03:46:47.091Z,11.11
2022-09-27T03:49:54.721Z,11.11
2022-09-27T03:53:02.510Z,11.10
2022-09-27T03:56:10.162Z,11.10
2022-09-27T03:59:18.473Z,11.09
2022-09-27T04:02:25.687Z,11.10
2022-09-27T04:05:33.785Z,11.09
2022-09-27T04:08:41.007Z,11.06
2022-09-27T04:11:49.263Z,11.07
2022-09-27T04:14:56.956Z,11.09
2022-09-27T04:18:04.667Z,11.09
2022-09-27T04:21:12.558Z,11.09
2022-09-27T04:24:20.659Z,11.13
2022-09-27T04:27:27.910Z,11.13
2022-09-27T04:30:36.120Z,11.16
2022-09-27T04:33:43.430Z,11.14
2022-09-27T04:36:51.359Z,11.14
2022-09-27T04:39:58.952Z,11.14
2022-09-27T04:43:06.713Z,11.14
2022-09-27T04:46:14.391Z,11.11
2022-09-27T04:49:22.024Z,11.09
2022-09-27T04:52:29.745Z,11.10
2022-09-27T04:55:37.947Z,11.06
2022-09-27T04:58:45.133Z,11.01
2022-09-27T05:01:53.336Z,10.99
2022-09-27T05:05:00.997Z,10.96
2022-09-27T05:08:08.509Z,10.96
2022-09-27T05:11:16.309Z,10.92
2022-09-27T05:14:23.916Z,10.92
2022-09-27T05:17:31.661Z,10.89
2022-09-27T05:20:39.700Z,10.89
2022-09-27T05:23:47.986Z,10.88
2022-09-27T05:26:56.221Z,10.88
2022-09-27T05:30:03.401Z,10.84
2022-09-27T05:33:11.601Z,10.88
2022-09-27T05:36:19.455Z,10.89
2022-09-27T05:39:27.064Z,10.89
2022-09-27T05:42:34.671Z,10.86
2022-09-27T05:45:42.736Z,10.86
2022-09-27T05:48:49.909Z,10.76
2022-09-27T05:51:58.147Z,10.76
2022-09-27T05:55:05.271Z,10.77
2022-09-27T05:58:13.409Z,10.80
2022-09-27T06:01:21.559Z,10.83
2022-09-27T06:04:29.592Z,10.86
2022-09-27T06:07:37.750Z,10.84
2022-09-27T06:10:45.891Z,10.83
2022-09-27T06:13:53.070Z,10.86
2022-09-27T06:17:01.245Z,10.89
2022-09-27T06:20:08.384Z,10.94
2022-09-27T06:23:16.694Z,10.92
2022-09-27T06:26:24.347Z,10.84
2022-09-27T06:29:31.995Z,10.83
2022-09-27T06:32:39.593Z,10.81
2022-09-27T06:35:47.427Z,10.77
2022-09-27T06:38:54.587Z,10.77
2022-09-27T06:42:02.448Z,10.80
2022-09-27T06:45:09.698Z,10.76
2022-09-27T06:48:17.619Z,10.78
2022-09-27T06:51:25.360Z,10.74
2022-09-27T06:54:32.990Z,10.76
2022-09-27T06:57:40.715Z,10.73
2022-09-27T07:00:48.925Z,10.78
2022-09-27T07:03:56.773Z,10.74
2022-09-27T07:07:04.333Z,10.68
2022-09-27T07:10:12.114Z,10.71
2022-09-27T07:13:19.857Z,10.76
2022-09-27T07:16:28.063Z,10.76
2022-09-27T07:19:35.248Z,10.70
2022-09-27T07:22:43.436Z,10.71
2022-09-27T07:25:50.737Z,10.74
2022-09-27T07:28:59.119Z,10.74
2022-09-27T07:32:06.809Z,10.70
2022-09-27T07:35:14.448Z,10.68
2022-09-27T07:38:21.961Z,10.66
2022-09-27T07:41:30.138Z,10.65
2022-09-27T07:44:37.438Z,10.65
2022-09-27T07:47:45.453Z,10.62
2022-09-27T07:50:52.682Z,10.47
2022-09-27T07:54:03.252Z,10.46
2022-09-27T07:57:03.394Z,10.39
2022-09-27T08:00:10.745Z,10.34
2022-09-27T08:03:18.435Z,10.30
2022-09-27T08:06:26.713Z,10.36
2022-09-27T08:09:34.568Z,10.43
2022-09-27T08:12:42.348Z,10.51
2022-09-27T08:15:50.025Z,10.66
2022-09-27T08:18:57.720Z,10.80
2022-09-27T08:22:05.980Z,10.89
2022-09-27T08:25:13.148Z,10.91
2022-09-27T08:28:21.330Z,10.99
2022-09-27T08:31:28.990Z,11.20
2022-09-27T08:34:36.629Z,11.25
2022-09-27T08:37:44.523Z,11.31
2022-09-27T08:40:52.441Z,11.27
2022-09-27T08:44:00.236Z,11.19
2022-09-27T08:47:08.565Z,10.99
2022-09-27T08:50:15.977Z,11.01
2022-09-27T08:53:24.225Z,10.96
2022-09-27T08:56:32.637Z,10.88
2022-09-27T08:59:40.097Z,10.89
2022-09-27T09:02:48.569Z,10.86
2022-09-27T09:05:56.451Z,10.83
2022-09-27T09:09:04.710Z,10.71
2022-09-27T09:12:12.552Z,10.66
2022-09-27T09:15:20.423Z,10.59
2022-09-27T09:18:28.311Z,10.60
2022-09-27T09:21:36.513Z,10.71
2022-09-27T09:24:44.463Z,10.81
2022-09-27T09:27:52.382Z,10.88
2022-09-27T09:31:00.657Z,10.98
2022-09-27T09:34:08.607Z,10.94
2022-09-27T09:37:16.376Z,10.73
2022-09-27T09:40:24.865Z,10.74
2022-09-27T09:43:32.287Z,10.77
2022-09-27T09:46:45.361Z,10.81
2022-09-27T09:49:43.131Z,10.77
2022-09-27T09:52:50.464Z,10.77
2022-09-27T09:55:58.717Z,10.68
2022-09-27T09:59:06.482Z,10.81
2022-09-27T10:02:14.160Z,11.14
2022-09-27T10:05:22.402Z,11.34
2022-09-27T10:08:29.873Z,11.62
2022-09-27T10:11:38.350Z,11.65
2022-09-27T10:14:46.575Z,11.56
2022-09-27T10:17:53.889Z,11.56
2022-09-27T10:21:02.248Z,11.56
2022-09-27T10:24:16.528Z,11.41
2022-09-27T10:27:13.892Z,11.29
2022-09-27T10:30:22.314Z,11.39
2022-09-27T10:33:30.058Z,11.38
2022-09-27T10:36:37.960Z,11.39
2022-09-27T10:39:46.049Z,11.38
2022-09-27T10:42:53.722Z,11.49
2022-09-27T10:46:01.487Z,11.61
2022-09-27T10:49:09.834Z,11.70
2022-09-27T10:52:17.704Z,12.11
2022-09-27T10:55:25.575Z,12.15
2022-09-27T10:58:33.434Z,11.96
2022-09-27T11:01:41.607Z,12.30
2022-09-27T11:04:49.165Z,12.44
2022-09-27T11:07:56.988Z,12.78
2022-09-27T11:11:04.858Z,12.74
2022-09-27T11:14:12.319Z,12.44
2022-09-27T11:17:19.799Z,12.21
2022-09-27T11:20:27.912Z,12.04
2022-09-27T11:23:35.112Z,12.01
2022-09-27T11:26:43.015Z,12.05
2022-09-27T11:29:51.022Z,12.02
2022-09-27T11:32:58.289Z,12.21
2022-09-27T11:36:06.418Z,12.48
2022-09-27T11:39:14.397Z,12.75
2022-09-27T11:42:21.596Z,12.96
2022-09-27T11:45:50.562Z,13.03
2022-09-27T11:48:33.875Z,13.15
2022-09-27T11:51:41.410Z,13.14
2022-09-27T11:54:49.052Z,12.82
2022-09-27T11:57:56.638Z,12.39
2022-09-27T12:01:04.232Z,12.15
2022-09-27T12:04:12.311Z,11.77
2022-09-27T12:07:19.992Z,11.47
2022-09-27T12:10:27.524Z,11.34
2022-09-27T12:13:35.274Z,11.24
2022-09-27T12:16:43.215Z,11.29
2022-09-27T12:19:50.595Z,11.46
2022-09-27T12:23:00.051Z,11.62
2022-09-27T12:26:08.516Z,11.75
2022-09-27T12:29:16.367Z,11.80
2022-09-27T12:32:24.014Z,11.65
2022-09-27T12:35:32.377Z,11.54
2022-09-27T12:38:39.642Z,11.32
2022-09-27T12:41:47.559Z,11.16
2022-09-27T12:44:55.276Z,11.17
2022-09-27T12:48:02.621Z,11.11
2022-09-27T12:51:10.783Z,11.17
2022-09-27T12:54:18.454Z,11.49
2022-09-27T12:57:25.943Z,11.89
2022-09-27T13:00:34.374Z,12.12
2022-09-27T13:03:41.934Z,12.12
2022-09-27T13:06:50.156Z,11.96
2022-09-27T13:09:58.467Z,11.85
2022-09-27T13:13:05.866Z,11.96
2022-09-27T13:16:14.271Z,12.02
2022-09-27T13:19:26.436Z,12.02
2022-09-27T13:22:23.959Z,12.11
2022-09-27T13:25:31.790Z,12.02
2022-09-27T13:28:39.479Z,11.94
2022-09-27T13:31:47.164Z,11.64
2022-09-27T13:34:54.962Z,11.35
2022-09-27T13:38:02.912Z,11.16
2022-09-27T13:41:13.575Z,11.03
2022-09-27T13:44:14.269Z,10.91
2022-09-27T13:47:22.685Z,10.80
2022-09-27T13:50:30.596Z,10.80
2022-09-27T13:53:38.076Z,10.84
2022-09-27T13:56:46.017Z,10.92
2022-09-27T13:59:53.788Z,11.07
2022-09-27T14:03:01.748Z,11.43
2022-09-27T14:06:10.099Z,11.57
2022-09-27T14:09:21.060Z,11.65
2022-09-27T14:12:28.361Z,11.74
2022-09-27T14:15:36.603Z,11.82
2022-09-27T14:18:44.143Z,12.05
2022-09-27T14:21:52.479Z,12.09
2022-09-27T14:25:00.824Z,11.94
2022-09-27T14:28:08.372Z,11.87
2022-09-27T14:31:16.487Z,11.72
2022-09-27T14:34:24.666Z,11.65
2022-09-27T14:37:32.367Z,11.62
2022-09-27T14:40:40.806Z,11.65
2022-09-27T14:43:48.667Z,11.56
2022-09-27T14:46:56.510Z,11.56
2022-09-27T14:50:05.854Z,11.56
2022-09-27T14:53:13.671Z,11.54
2022-09-27T14:56:21.550Z,11.41
2022-09-27T14:59:29.272Z,11.34
2022-09-27T15:02:37.580Z,11.31
2022-09-27T15:05:45.543Z,11.13
2022-09-27T15:08:53.413Z,10.89
2022-09-27T15:12:01.810Z,10.76
2022-09-27T15:15:09.295Z,10.62
2022-09-27T15:18:17.167Z,10.55
2022-09-27T15:21:25.097Z,10.46
2022-09-27T15:24:32.928Z,10.26
2022-09-27T15:27:41.370Z,10.19
2022-09-27T15:30:49.288Z,10.18
2022-09-27T15:33:57.163Z,10.14
2022-09-27T15:37:05.381Z,10.18
2022-09-27T15:40:12.852Z,10.19
2022-09-27T15:43:21.248Z,10.19
2022-09-27T15:46:29.393Z,10.18
2022-09-27T15:49:36.944Z,10.21
2022-09-27T15:52:45.308Z,10.25
2022-09-27T15:55:53.736Z,10.28
2022-09-27T15:59:01.255Z,10.28
2022-09-27T16:02:09.413Z,10.25
2022-09-27T16:05:17.298Z,10.22
2022-09-27T16:08:25.157Z,10.18
2022-09-27T16:11:33.284Z,10.12
2022-09-27T16:14:40.761Z,10.09
2022-09-27T16:17:48.933Z,10.06
2022-09-27T16:20:57.200Z,10.04
2022-09-27T16:24:06.312Z,10.01
2022-09-27T16:27:14.681Z,10.01
2022-09-27T16:30:22.496Z,9.94
2022-09-27T16:33:30.393Z,9.93
2022-09-27T16:36:38.713Z,9.91
2022-09-27T16:39:46.761Z,9.91
2022-09-27T16:42:54.671Z,9.89
2022-09-27T16:46:03.005Z,9.85
2022-09-27T16:49:10.816Z,9.85
2022-09-27T16:52:18.506Z,9.82
2022-09-27T16:55:26.368Z,9.75
2022-09-27T16:58:34.758Z,9.66
2022-09-27T17:01:42.707Z,9.63
2022-09-27T17:04:51.670Z,9.60
2022-09-27T17:07:59.229Z,9.56
2022-09-27T17:11:07.180Z,9.45
2022-09-27T17:14:14.953Z,9.42
2022-09-27T17:17:23.052Z,9.43
2022-09-27T17:20:30.243Z,9.43
2022-09-27T17:23:38.503Z,9.40
2022-09-27T17:26:46.343Z,9.32
2022-09-27T17:29:53.525Z,9.28
2022-09-27T17:33:01.539Z,9.25
2022-09-27T17:36:09.685Z,9.21
2022-09-27T17:39:16.879Z,9.16
2022-09-27T17:42:25.120Z,9.20
2022-09-27T17:45:32.816Z,9.21
2022-09-27T17:48:40.310Z,9.25
2022-09-27T17:51:47.910Z,9.28
2022-09-27T17:54:55.481Z,9.38
2022-09-27T17:58:02.743Z,9.40
2022-09-27T18:01:10.672Z,9.45
2022-09-27T18:04:18.599Z,9.46
2022-09-27T18:07:26.419Z,9.43
2022-09-27T18:10:34.802Z,9.43
2022-09-27T18:13:42.666Z,9.46
2022-09-27T18:16:50.263Z,9.48
2022-09-27T18:19:57.963Z,9.50
2022-09-27T18:23:05.864Z,9.53
2022-09-27T18:26:13.499Z,9.52
2022-09-27T18:29:21.417Z,9.53
2022-09-27T18:32:29.416Z,9.57
2022-09-27T18:35:37.286Z,9.56
2022-09-27T18:38:44.938Z,9.52
2022-09-27T18:41:53.088Z,9.49
2022-09-27T18:45:00.420Z,9.48
2022-09-27T18:48:08.081Z,9.43
2022-09-27T18:51:16.100Z,9.39
2022-09-27T18:54:23.485Z,9.38
2022-09-27T18:57:30.763Z,9.35
2022-09-27T19:00:38.903Z,9.35
2022-09-27T19:03:46.543Z,9.34
2022-09-27T19:06:54.157Z,9.34
2022-09-27T19:10:01.922Z,9.39
2022-09-27T19:13:09.555Z,9.40
2022-09-27T19:16:17.396Z,9.43
2022-09-27T19:19:25.197Z,9.40
2022-09-27T19:22:32.796Z,9.40
2022-09-27T19:25:40.818Z,9.39
2022-09-27T19:28:48.017Z,9.35
2022-09-27T19:31:55.988Z,9.35
2022-09-27T19:35:03.674Z,9.38
2022-09-27T19:38:11.420Z,9.34
2022-09-27T19:41:19.434Z,9.35
2022-09-27T19:44:27.141Z,9.39
2022-09-27T19:47:35.711Z,9.39
2022-09-27T19:50:43.472Z,9.42
2022-09-27T19:53:51.192Z,9.40
2022-09-27T19:56:59.233Z,9.42
2022-09-27T20:00:06.421Z,9.46
2022-09-27T20:03:14.614Z,9.48
2022-09-27T20:06:22.754Z,9.49
2022-09-27T20:09:29.976Z,9.52
2022-09-27T20:12:37.976Z,9.53
2022-09-27T20:15:45.560Z,9.56
2022-09-27T20:18:53.182Z,9.58
2022-09-27T20:22:01.018Z,9.61
2022-09-27T20:25:08.171Z,9.66
2022-09-27T20:28:16.197Z,9.63
2022-09-27T20:31:24.385Z,9.64
2022-09-27T20:34:32.071Z,9.64
2022-09-27T20:37:39.713Z,9.67
2022-09-27T20:40:47.856Z,9.68
2022-09-27T20:43:55.594Z,9.68
2022-09-27T20:47:03.397Z,9.68
2022-09-27T20:50:10.914Z,9.68
2022-09-27T20:53:18.485Z,9.64
2022-09-27T20:56:26.637Z,9.66
2022-09-27T20:59:34.115Z,9.66
2022-09-27T21:02:41.770Z,9.64
2022-09-27T21:05:49.377Z,9.63
2022-09-27T21:08:57.607Z,9.58
2022-09-27T21:12:06.008Z,9.57
2022-09-27T21:15:14.368Z,9.53
2022-09-27T21:18:23.090Z,9.56
2022-09-27T21:21:30.821Z,9.53
2022-09-27T21:24:38.490Z,9.56
2022-09-27T21:27:46.420Z,9.57
2022-09-27T21:30:53.791Z,9.56
2022-09-27T21:34:01.764Z,9.53
2022-09-27T21:37:09.793Z,9.53
2022-09-27T21:40:17.081Z,9.56
2022-09-27T21:43:25.035Z,9.53
2022-09-27T21:46:33.279Z,9.57
2022-09-27T21:49:40.523Z,9.57
2022-09-27T21:52:48.507Z,9.56
2022-09-27T21:55:56.008Z,9.56
2022-09-27T21:59:03.548Z,9.58
2022-09-27T22:02:11.559Z,9.63
2022-09-27T22:05:19.149Z,9.63
2022-09-27T22:08:26.839Z,9.66
2022-09-27T22:11:34.711Z,9.63
2022-09-27T22:14:42.441Z,9.64
2022-09-27T22:17:49.992Z,9.61
2022-09-27T22:20:57.541Z,9.60
2022-09-27T22:24:08.013Z,9.61
2022-09-27T22:27:15.893Z,9.56
2022-09-27T22:30:23.533Z,9.56
2022-09-27T22:33:31.565Z,9.56
2022-09-27T22:36:39.175Z,9.56
2022-09-27T22:39:46.876Z,9.52
2022-09-27T22:42:54.886Z,9.50
2022-09-27T22:46:02.037Z,9.49
2022-09-27T22:49:10.084Z,9.48
2022-09-27T22:52:18.238Z,9.50
2022-09-27T22:55:25.319Z,9.52
2022-09-27T22:58:33.157Z,9.53
2022-09-27T23:01:41.089Z,9.52
2022-09-27T23:04:48.270Z,9.48
2022-09-27T23:07:56.051Z,9.43
2022-09-27T23:11:04.003Z,9.38
2022-09-27T23:14:11.150Z,9.32
2022-09-27T23:17:19.131Z,9.30
2022-09-27T23:20:26.614Z,9.30
2022-09-27T23:23:34.185Z,9.27
2022-09-27T23:26:35.729Z,9.25
2022-09-27T23:29:43.235Z,9.24
2022-09-27T23:32:50.756Z,9.21
2022-09-27T23:35:58.295Z,9.12
2022-09-27T23:39:06.287Z,9.12
2022-09-27T23:42:16.668Z,9.13
2022-09-27T23:45:24.330Z,9.12
2022-09-27T23:48:32.349Z,9.16
2022-09-27T23:51:40.008Z,9.13
2022-09-27T23:54:47.569Z,9.16
2022-09-27T23:57:54.809Z,9.15
